Tug "trevor" — WCP6921 — position and weather

sailwx.info

Track history (hours):
 
Tides and Currents Weather Stations Pressure Air Temp Water Temp Dewpoint Dewpoint Depression Visibility Wind Speed Wind Dir Waves Ship Positions

Tug "trevor"

Owner: WEEKS MARINE, INC., CRANFORD, NJ. More information available from US FCC via Universal Licensing System and Coast Guard Vessel Documentation Center.

Last reported at 2016-Sep-25 15:11 UTC. Time now 2016-Sep-25 15:47 UTC.
Position N 39°26' W 074°11'.

Length 21 m; draft 3 m.

Type: Towing. MMSI: 366643140.

Date/timePositionNaut miles runAvg speedWind from/ knotsBaromVisibWave heightAir tempDewpointWater temp
2016-Sep-25 15:11N 39°26' W 074°11'4 6.7
2016-Sep-25 14:33N 39°30' W 074°08'13 6.5
2016-Sep-25 12:33N 39°42' W 074°02'49 6.1
2016-Sep-25 04:33N 40°31' W 073°59'11 2.7
2016-Sep-25 00:33N 40°41' W 074°04'3 1.7
2016-Sep-24 22:33N 40°37' W 074°03'41 6.8
2016-Sep-24 16:33N 39°57' W 073°60'13 6.5
2016-Sep-24 14:33N 39°44' W 074°01'12 5.7
2016-Sep-24 12:32N 39°33' W 074°06'60 6.7
2016-Sep-24 03:33N 38°53' W 075°04'9 8.7
2016-Sep-24 02:32N 39°00' W 075°09'9 9.1
2016-Sep-24 01:33N 39°08' W 075°15'1010.5
2016-Sep-24 00:33N 39°17' W 075°22'30 6.1
2016-Sep-23 19:33N 39°47' W 075°27'4 2.2
2016-Sep-23 17:34N 39°50' W 075°22'0 0.3
2016-Sep-23 16:33N 39°50' W 075°22'2 1.7
2016-Sep-23 15:33N 39°49' W 075°24'1 0.4
2016-Sep-23 13:23N 39°48' W 075°25'2 0.6
2016-Sep-23 09:34N 39°50' W 075°22'2 0.8
2016-Sep-23 06:33N 39°48' W 075°25'0 0.0
2016-Sep-23 04:33N 39°48' W 075°25'0 0.0
2016-Sep-23 03:33N 39°48' W 075°25'0 0.0
2016-Sep-23 02:33N 39°48' W 075°25'0 0.0
2016-Sep-23 01:33N 39°48' W 075°25'0 0.2
2016-Sep-23 00:32N 39°48' W 075°25'0 0.0
2016-Sep-22 23:33N 39°48' W 075°25'0 0.0
2016-Sep-22 20:33N 39°48' W 075°25'0 0.0
2016-Sep-22 12:33N 39°48' W 075°25'0 0.0
2016-Sep-22 04:26N 39°48' W 075°25'0 0.0
2016-Sep-22 03:29N 39°48' W 075°25'0 0.0
2016-Sep-22 00:30N 39°48' W 075°25'0 0.1
2016-Sep-21 23:34N 39°48' W 075°25'1 0.7
2016-Sep-21 22:33N 39°49' W 075°24'1 0.2
2016-Sep-21 19:33N 39°48' W 075°25'0 0.0
2016-Sep-21 16:33N 39°48' W 075°25'3 0.4
2016-Sep-21 09:33N 39°49' W 075°22'3 2.8
2016-Sep-21 08:33N 39°48' W 075°25'0 0.0
2016-Sep-21 05:33N 39°48' W 075°25'0 0.0
2016-Sep-21 03:33N 39°48' W 075°25'0 0.0
2016-Sep-21 02:33N 39°48' W 075°25'0 0.0
2016-Sep-20 17:33N 39°48' W 075°25'0 0.0
2016-Sep-20 14:33N 39°48' W 075°25'0 0.0
2016-Sep-20 13:33N 39°48' W 075°25'1 0.4
2016-Sep-20 10:33N 39°49' W 075°23'1 0.7
2016-Sep-20 08:33N 39°48' W 075°25'0 0.0
2016-Sep-20 07:33N 39°48' W 075°25'0 0.0
2016-Sep-20 06:33N 39°48' W 075°25'3 0.7
2016-Sep-20 02:33N 39°49' W 075°22'0 0.0
2016-Sep-19 23:33N 39°49' W 075°22'0 0.0
2016-Sep-19 19:33N 39°49' W 075°22'0 0.0
2016-Sep-19 18:33N 39°49' W 075°22'0 0.0
2016-Sep-19 16:33N 39°49' W 075°22'1 0.5
2016-Sep-19 14:33N 39°49' W 075°23'2 1.7
2016-Sep-19 13:33N 39°48' W 075°25'0 0.0
2016-Sep-19 12:33N 39°48' W 075°25'0 0.0
2016-Sep-19 11:33N 39°48' W 075°25'3 1.4
2016-Sep-19 09:33N 39°49' W 075°22'3 1.4
2016-Sep-19 07:33N 39°48' W 075°25'1 0.6
2016-Sep-19 06:33N 39°49' W 075°24'1 0.2
2016-Sep-19 03:33N 39°48' W 075°25'0 0.0
2016-Sep-19 02:33N 39°48' W 075°25'0 0.0
2016-Sep-19 00:33N 39°48' W 075°25'0 0.1
2016-Sep-18 19:33N 39°48' W 075°25'0 0.1
2016-Sep-18 15:33N 39°48' W 075°25'0 0.1
2016-Sep-18 14:33N 39°48' W 075°25'1 0.4
2016-Sep-18 10:33N 39°49' W 075°23'1 1.3
2016-Sep-18 09:33N 39°49' W 075°22'3 0.4
2016-Sep-18 02:33N 39°48' W 075°25'0 0.2
2016-Sep-18 01:33N 39°48' W 075°25'0 0.2
2016-Sep-18 00:33N 39°48' W 075°25'2 0.9
2016-Sep-17 22:33N 39°49' W 075°23'1 0.9
2016-Sep-17 21:34N 39°50' W 075°22'3 2.8
2016-Sep-17 20:33N 39°48' W 075°25'0 0.0
2016-Sep-17 19:16N 39°48' W 075°25'0 0.0
2016-Sep-17 13:33N 39°48' W 075°25'0 0.0
2016-Sep-17 12:33N 39°48' W 075°25'1 0.7
2016-Sep-17 10:33N 39°49' W 075°23'0 0.5
2016-Sep-17 09:33N 39°49' W 075°23'2 1.9
2016-Sep-17 08:33N 39°48' W 075°25'0 0.0
2016-Sep-17 07:33N 39°48' W 075°25'0 0.0
2016-Sep-17 05:33N 39°48' W 075°25'0 0.0
2016-Sep-17 04:33N 39°48' W 075°25'0 0.0
2016-Sep-17 00:33N 39°48' W 075°25'0 0.0
2016-Sep-16 17:34N 39°48' W 075°25'3 1.5
2016-Sep-16 15:34N 39°50' W 075°22'3 0.9
2016-Sep-16 12:34N 39°48' W 075°25'3 0.9
2016-Sep-16 09:34N 39°49' W 075°22'3 1.3
2016-Sep-16 07:33N 39°48' W 075°25'0 0.1
2016-Sep-16 03:33N 39°48' W 075°25'0 0.0
2016-Sep-16 02:33N 39°48' W 075°25'0 0.0
2016-Sep-16 00:33N 39°48' W 075°25'0 0.2
2016-Sep-15 22:33N 39°48' W 075°25'1 1.3
2016-Sep-15 21:33N 39°49' W 075°24'2 1.6
2016-Sep-15 20:33N 39°48' W 075°25'0 0.0
2016-Sep-15 18:33N 39°48' W 075°25'  
Track history (hours):
 
Tides and Currents Weather Stations Pressure Air Temp Water Temp Dewpoint Dewpoint Depression Visibility Wind Speed Wind Dir Waves Ship Positions

Tug "trevor"

Owner: WEEKS MARINE, INC., CRANFORD, NJ. More information available from US FCC via Universal Licensing System and Coast Guard Vessel Documentation Center.

Last reported at 2016-Sep-25 15:11 UTC. Time now 2016-Sep-25 15:47 UTC.
Position N 39°26' W 074°11'.

Length 21 m; draft 3 m.

Type: Towing. MMSI: 366643140.

Date/timePositionNaut miles runAvg speedWind from/ knotsBaromVisibWave heightAir tempDewpointWater temp
2016-Sep-25 15:11N 39°26' W 074°11'4 6.7
2016-Sep-25 14:33N 39°30' W 074°08'13 6.5
2016-Sep-25 12:33N 39°42' W 074°02'49 6.1
2016-Sep-25 04:33N 40°31' W 073°59'11 2.7
2016-Sep-25 00:33N 40°41' W 074°04'3 1.7
2016-Sep-24 22:33N 40°37' W 074°03'41 6.8
2016-Sep-24 16:33N 39°57' W 073°60'13 6.5
2016-Sep-24 14:33N 39°44' W 074°01'12 5.7
2016-Sep-24 12:32N 39°33' W 074°06'60 6.7
2016-Sep-24 03:33N 38°53' W 075°04'9 8.7
2016-Sep-24 02:32N 39°00' W 075°09'9 9.1
2016-Sep-24 01:33N 39°08' W 075°15'1010.5
2016-Sep-24 00:33N 39°17' W 075°22'30 6.1
2016-Sep-23 19:33N 39°47' W 075°27'4 2.2
2016-Sep-23 17:34N 39°50' W 075°22'0 0.3
2016-Sep-23 16:33N 39°50' W 075°22'2 1.7
2016-Sep-23 15:33N 39°49' W 075°24'1 0.4
2016-Sep-23 13:23N 39°48' W 075°25'2 0.6
2016-Sep-23 09:34N 39°50' W 075°22'2 0.8
2016-Sep-23 06:33N 39°48' W 075°25'0 0.0
2016-Sep-23 04:33N 39°48' W 075°25'0 0.0
2016-Sep-23 03:33N 39°48' W 075°25'0 0.0
2016-Sep-23 02:33N 39°48' W 075°25'0 0.0
2016-Sep-23 01:33N 39°48' W 075°25'0 0.2
2016-Sep-23 00:32N 39°48' W 075°25'0 0.0
2016-Sep-22 23:33N 39°48' W 075°25'0 0.0
2016-Sep-22 20:33N 39°48' W 075°25'0 0.0
2016-Sep-22 12:33N 39°48' W 075°25'0 0.0
2016-Sep-22 04:26N 39°48' W 075°25'0 0.0
2016-Sep-22 03:29N 39°48' W 075°25'0 0.0
2016-Sep-22 00:30N 39°48' W 075°25'0 0.1
2016-Sep-21 23:34N 39°48' W 075°25'1 0.7
2016-Sep-21 22:33N 39°49' W 075°24'1 0.2
2016-Sep-21 19:33N 39°48' W 075°25'0 0.0
2016-Sep-21 16:33N 39°48' W 075°25'3 0.4
2016-Sep-21 09:33N 39°49' W 075°22'3 2.8
2016-Sep-21 08:33N 39°48' W 075°25'0 0.0
2016-Sep-21 05:33N 39°48' W 075°25'0 0.0
2016-Sep-21 03:33N 39°48' W 075°25'0 0.0
2016-Sep-21 02:33N 39°48' W 075°25'0 0.0
2016-Sep-20 17:33N 39°48' W 075°25'0 0.0
2016-Sep-20 14:33N 39°48' W 075°25'0 0.0
2016-Sep-20 13:33N 39°48' W 075°25'1 0.4
2016-Sep-20 10:33N 39°49' W 075°23'1 0.7
2016-Sep-20 08:33N 39°48' W 075°25'0 0.0
2016-Sep-20 07:33N 39°48' W 075°25'0 0.0
2016-Sep-20 06:33N 39°48' W 075°25'3 0.7
2016-Sep-20 02:33N 39°49' W 075°22'0 0.0
2016-Sep-19 23:33N 39°49' W 075°22'0 0.0
2016-Sep-19 19:33N 39°49' W 075°22'0 0.0
2016-Sep-19 18:33N 39°49' W 075°22'0 0.0
2016-Sep-19 16:33N 39°49' W 075°22'1 0.5
2016-Sep-19 14:33N 39°49' W 075°23'2 1.7
2016-Sep-19 13:33N 39°48' W 075°25'0 0.0
2016-Sep-19 12:33N 39°48' W 075°25'0 0.0
2016-Sep-19 11:33N 39°48' W 075°25'3 1.4
2016-Sep-19 09:33N 39°49' W 075°22'3 1.4
2016-Sep-19 07:33N 39°48' W 075°25'1 0.6
2016-Sep-19 06:33N 39°49' W 075°24'1 0.2
2016-Sep-19 03:33N 39°48' W 075°25'0 0.0
2016-Sep-19 02:33N 39°48' W 075°25'0 0.0
2016-Sep-19 00:33N 39°48' W 075°25'0 0.1
2016-Sep-18 19:33N 39°48' W 075°25'0 0.1
2016-Sep-18 15:33N 39°48' W 075°25'0 0.1
2016-Sep-18 14:33N 39°48' W 075°25'1 0.4
2016-Sep-18 10:33N 39°49' W 075°23'1 1.3
2016-Sep-18 09:33N 39°49' W 075°22'3 0.4
2016-Sep-18 02:33N 39°48' W 075°25'0 0.2
2016-Sep-18 01:33N 39°48' W 075°25'0 0.2
2016-Sep-18 00:33N 39°48' W 075°25'2 0.9
2016-Sep-17 22:33N 39°49' W 075°23'1 0.9
2016-Sep-17 21:34N 39°50' W 075°22'3 2.8
2016-Sep-17 20:33N 39°48' W 075°25'0 0.0
2016-Sep-17 19:16N 39°48' W 075°25'0 0.0
2016-Sep-17 13:33N 39°48' W 075°25'0 0.0
2016-Sep-17 12:33N 39°48' W 075°25'1 0.7
2016-Sep-17 10:33N 39°49' W 075°23'0 0.5
2016-Sep-17 09:33N 39°49' W 075°23'2 1.9
2016-Sep-17 08:33N 39°48' W 075°25'0 0.0
2016-Sep-17 07:33N 39°48' W 075°25'0 0.0
2016-Sep-17 05:33N 39°48' W 075°25'0 0.0
2016-Sep-17 04:33N 39°48' W 075°25'0 0.0
2016-Sep-17 00:33N 39°48' W 075°25'0 0.0
2016-Sep-16 17:34N 39°48' W 075°25'3 1.5
2016-Sep-16 15:34N 39°50' W 075°22'3 0.9
2016-Sep-16 12:34N 39°48' W 075°25'3 0.9
2016-Sep-16 09:34N 39°49' W 075°22'3 1.3
2016-Sep-16 07:33N 39°48' W 075°25'0 0.1
2016-Sep-16 03:33N 39°48' W 075°25'0 0.0
2016-Sep-16 02:33N 39°48' W 075°25'0 0.0
2016-Sep-16 00:33N 39°48' W 075°25'0 0.2
2016-Sep-15 22:33N 39°48' W 075°25'1 1.3
2016-Sep-15 21:33N 39°49' W 075°24'2 1.6
2016-Sep-15 20:33N 39°48' W 075°25'0 0.0
2016-Sep-15 18:33N 39°48' W 075°25'  

Dump ship's entire track history